createdAt,value
2023-08-07T00:02:04.146Z,100549.69
2023-08-07T00:04:30.785Z,100543.22
2023-08-07T00:06:57.392Z,100524.31
2023-08-07T00:09:23.871Z,100535.25
2023-08-07T00:11:50.412Z,100543.41
2023-08-07T00:14:17.068Z,100530.22
2023-08-07T00:16:44.065Z,100552.94
2023-08-07T00:19:11.954Z,100532.06
2023-08-07T00:21:38.999Z,100532.06
2023-08-07T00:24:05.872Z,100529.22
2023-08-07T00:26:33.382Z,100529.22
2023-08-07T00:29:00.045Z,100537.13
2023-08-07T00:31:26.832Z,100538.56
2023-08-07T00:33:55.421Z,100540.75
2023-08-07T00:36:22.092Z,100548.06
2023-08-07T00:38:48.604Z,100518.63
2023-08-07T00:41:15.139Z,100538.13
2023-08-07T00:43:42.218Z,100526.97
2023-08-07T00:46:08.870Z,100537.72
2023-08-07T00:48:35.477Z,100544.19
2023-08-07T00:51:03.146Z,100544.00
2023-08-07T00:53:29.956Z,100538.50
2023-08-07T00:55:56.765Z,100538.72
2023-08-07T00:58:23.297Z,100547.88
2023-08-07T01:00:50.047Z,100535.91
2023-08-07T01:03:16.590Z,100558.59
2023-08-07T01:05:46.095Z,100526.94
2023-08-07T01:08:13.321Z,100543.59
2023-08-07T01:11:16.830Z,100551.31
2023-08-07T01:13:52.515Z,100541.41
2023-08-07T01:16:27.368Z,100529.44
2023-08-07T01:18:55.641Z,100527.00
2023-08-07T01:21:22.478Z,100530.88
2023-08-07T01:23:49.479Z,100540.81
2023-08-07T01:26:18.179Z,100536.38
2023-08-07T01:28:54.739Z,100554.59
2023-08-07T01:31:24.666Z,100545.69
2023-08-07T01:34:07.496Z,100555.41
2023-08-07T01:36:34.688Z,100539.59
2023-08-07T01:39:03.068Z,100559.47
2023-08-07T01:41:30.220Z,100557.06
2023-08-07T01:43:56.852Z,100536.75
2023-08-07T01:46:23.346Z,100510.78
2023-08-07T01:48:49.843Z,100463.69
2023-08-07T01:51:16.416Z,100549.75
2023-08-07T01:53:42.885Z,100541.22
2023-08-07T01:56:09.392Z,100553.19
2023-08-07T01:58:35.912Z,100544.06
2023-08-07T02:01:02.389Z,100555.03
2023-08-07T02:03:29.003Z,100529.03
2023-08-07T02:05:55.636Z,100542.84
2023-08-07T02:08:22.699Z,100534.53
2023-08-07T02:10:49.200Z,100555.81
2023-08-07T02:13:15.695Z,100554.22
2023-08-07T02:15:42.177Z,100542.22
2023-08-07T02:18:08.726Z,100566.16
2023-08-07T02:20:35.261Z,100535.72
2023-08-07T02:23:01.847Z,100550.53
2023-08-07T02:25:28.399Z,100531.41
2023-08-07T02:27:54.856Z,100561.81
2023-08-07T02:30:21.322Z,100578.25
2023-08-07T02:32:47.991Z,100554.28
2023-08-07T02:35:14.618Z,100567.09
2023-08-07T02:37:41.256Z,100544.34
2023-08-07T02:40:08.391Z,100526.09
2023-08-07T02:42:34.904Z,100542.31
2023-08-07T02:45:01.380Z,100563.84
2023-08-07T02:47:27.877Z,100543.56
2023-08-07T02:49:54.379Z,100571.75
2023-08-07T02:52:21.050Z,100559.22
2023-08-07T02:54:47.637Z,100543.19
2023-08-07T02:57:14.135Z,100533.03
2023-08-07T02:59:40.699Z,100541.53
2023-08-07T03:02:07.190Z,100558.38
2023-08-07T03:04:33.649Z,100555.91
2023-08-07T03:07:01.177Z,100556.53
2023-08-07T03:09:27.682Z,100587.44
2023-08-07T03:11:54.168Z,100567.34
2023-08-07T03:14:23.141Z,100563.69
2023-08-07T03:16:49.697Z,100569.00
2023-08-07T03:19:16.174Z,100540.63
2023-08-07T03:21:42.678Z,100535.97
2023-08-07T03:24:11.862Z,100543.06
2023-08-07T03:26:39.613Z,100551.16
2023-08-07T03:29:06.071Z,100558.88
2023-08-07T03:31:32.570Z,100551.78
2023-08-07T03:33:59.624Z,100569.59
2023-08-07T03:36:26.146Z,100542.00
2023-08-07T03:38:52.599Z,100566.78
2023-08-07T03:41:19.092Z,100543.66
2023-08-07T03:43:45.589Z,100568.56
2023-08-07T03:46:12.397Z,100577.94
2023-08-07T03:48:39.360Z,100555.19
2023-08-07T03:51:07.009Z,100574.09
2023-08-07T03:53:33.549Z,100562.72
2023-08-07T03:56:00.282Z,100574.31
2023-08-07T03:58:26.847Z,100563.94
2023-08-07T04:00:53.535Z,100581.78
2023-08-07T04:03:21.458Z,100577.75
2023-08-07T04:05:48.415Z,100576.69
2023-08-07T04:08:14.917Z,100563.53
2023-08-07T04:10:41.463Z,100543.44
2023-08-07T04:13:08.159Z,100523.16
2023-08-07T04:15:34.776Z,100556.00
2023-08-07T04:18:02.247Z,100549.13
2023-08-07T04:20:28.865Z,100547.28
2023-08-07T04:22:55.433Z,100568.81
2023-08-07T04:25:21.976Z,100561.09
2023-08-07T04:27:48.445Z,100571.84
2023-08-07T04:30:15.037Z,100541.44
2023-08-07T04:32:41.950Z,100580.19
2023-08-07T04:35:08.926Z,100572.91
2023-08-07T04:37:35.597Z,100586.28
2023-08-07T04:40:21.535Z,100587.88
2023-08-07T04:42:50.079Z,100575.50
2023-08-07T04:45:16.829Z,100586.66
2023-08-07T04:47:43.362Z,100562.91
2023-08-07T04:50:10.928Z,100565.75
2023-08-07T04:52:37.468Z,100565.75
2023-08-07T04:55:04.124Z,100589.94
2023-08-07T04:57:30.616Z,100592.97
2023-08-07T04:59:57.268Z,100597.22
2023-08-07T05:02:23.860Z,100597.22
2023-08-07T05:04:50.517Z,100583.84
2023-08-07T05:07:17.168Z,100580.97
2023-08-07T05:14:02.109Z,100602.09
2023-08-07T05:16:28.613Z,100614.66
2023-08-07T05:18:55.069Z,100615.84
2023-08-07T05:21:21.868Z,100604.03
2023-08-07T05:23:48.844Z,100604.03
2023-08-07T05:26:17.554Z,100612.03
2023-08-07T05:28:44.007Z,100615.88
2023-08-07T05:31:10.486Z,100610.63
2023-08-07T05:33:37.022Z,100615.88
2023-08-07T05:36:03.610Z,100609.97
2023-08-07T05:38:30.058Z,100614.88
2023-08-07T05:40:56.562Z,100615.66
2023-08-07T05:43:23.080Z,100616.50
2023-08-07T05:45:50.244Z,100580.59
2023-08-07T05:48:17.334Z,100635.19
2023-08-07T05:51:21.053Z,100636.84
2023-08-07T05:53:47.725Z,100611.47
2023-08-07T05:56:14.302Z,100628.53
2023-08-07T05:58:40.902Z,100634.00
2023-08-07T06:01:13.867Z,100595.03
2023-08-07T06:03:40.459Z,100536.81
2023-08-07T06:06:06.995Z,100593.66
2023-08-07T06:08:33.850Z,100617.38
2023-08-07T06:11:38.014Z,100641.97
2023-08-07T06:14:04.882Z,100625.53
2023-08-07T06:16:31.541Z,100620.22
2023-08-07T06:19:01.052Z,100640.78
2023-08-07T06:21:29.669Z,100646.63
2023-08-07T06:23:56.429Z,100624.72
2023-08-07T06:26:23.029Z,100641.97
2023-08-07T06:28:50.348Z,100641.38
2023-08-07T06:31:17.591Z,100634.25
2023-08-07T06:33:44.117Z,100643.78
2023-08-07T06:36:10.777Z,100668.78
2023-08-07T06:38:37.677Z,100646.03
2023-08-07T06:41:04.462Z,100650.69
2023-08-07T06:43:30.989Z,100635.84
2023-08-07T06:45:58.186Z,100687.97
2023-08-07T06:48:24.872Z,100660.94
2023-08-07T06:50:52.458Z,100683.66
2023-08-07T06:53:20.105Z,100691.59
2023-08-07T06:55:46.965Z,100692.59
2023-08-07T06:58:13.545Z,100674.38
2023-08-07T07:00:40.138Z,100702.63
2023-08-07T07:03:08.543Z,100688.81
2023-08-07T07:05:35.281Z,100642.09
2023-08-07T07:08:01.916Z,100662.25
2023-08-07T07:10:28.375Z,100692.09
2023-08-07T07:12:54.865Z,100675.69
2023-08-07T07:15:21.341Z,100694.34
2023-08-07T07:17:48.082Z,100671.00
2023-08-07T07:20:14.708Z,100661.47
2023-08-07T07:22:41.249Z,100694.31
2023-08-07T07:25:08.252Z,100703.22
2023-08-07T07:27:34.948Z,100693.47
2023-08-07T07:30:01.478Z,100699.16
2023-08-07T07:32:28.098Z,100673.22
2023-08-07T07:34:54.681Z,100638.31
2023-08-07T07:37:24.286Z,100637.31
2023-08-07T07:39:50.805Z,100671.19
2023-08-07T07:42:17.335Z,100734.91
2023-08-07T07:44:43.809Z,100724.34
2023-08-07T07:47:13.624Z,100729.00
2023-08-07T07:49:40.737Z,100721.69
2023-08-07T07:52:08.018Z,100738.19
2023-08-07T07:54:36.315Z,100732.91
2023-08-07T07:57:02.886Z,100725.97
2023-08-07T07:59:29.529Z,100726.59
2023-08-07T08:01:56.512Z,100726.97
2023-08-07T08:04:23.368Z,100741.97
2023-08-07T08:06:50.000Z,100769.44
2023-08-07T08:09:16.652Z,100754.00
2023-08-07T08:11:43.451Z,100768.44
2023-08-07T08:14:10.045Z,100713.22
2023-08-07T08:16:37.901Z,100739.75
2023-08-07T08:19:04.831Z,100766.34
2023-08-07T08:21:32.570Z,100766.97
2023-08-07T08:23:59.200Z,100785.06
2023-08-07T08:26:25.774Z,100796.06
2023-08-07T08:28:52.281Z,100785.22
2023-08-07T08:31:19.064Z,100805.69
2023-08-07T08:33:45.588Z,100794.69
2023-08-07T08:36:12.132Z,100783.19
2023-08-07T08:38:38.759Z,100781.53
2023-08-07T08:41:10.122Z,100799.22
2023-08-07T08:43:39.531Z,100800.84
2023-08-07T08:46:06.604Z,100809.56
2023-08-07T08:48:37.213Z,100793.91
2023-08-07T08:51:05.233Z,100818.31
2023-08-07T08:53:33.377Z,100832.81
2023-08-07T08:56:02.823Z,100826.13
2023-08-07T08:58:30.459Z,100825.31
2023-08-07T09:00:57.323Z,100821.47
2023-08-07T09:03:26.759Z,100805.97
2023-08-07T09:06:00.318Z,100831.13
2023-08-07T09:08:30.691Z,100823.38
2023-08-07T09:10:57.574Z,100828.94
2023-08-07T09:13:25.326Z,100818.94
2023-08-07T09:18:37.113Z,100737.91
2023-08-07T09:21:06.943Z,100725.53
2023-08-07T09:23:36.424Z,100814.22
2023-08-07T09:26:07.485Z,100837.06
2023-08-07T09:28:34.692Z,100847.88
2023-08-07T09:31:03.146Z,100832.38
2023-08-07T09:33:31.585Z,100856.56
2023-08-07T09:36:00.166Z,100820.41
2023-08-07T09:38:31.180Z,100855.50
2023-08-07T09:41:02.060Z,100850.41
2023-08-07T09:43:29.391Z,100850.16
2023-08-07T09:46:05.331Z,100844.84
2023-08-07T09:48:34.926Z,100872.09
2023-08-07T09:51:04.097Z,100857.38
2023-08-07T09:53:31.938Z,100859.69
2023-08-07T09:55:59.448Z,100870.56
2023-08-07T09:58:26.197Z,100859.41
2023-08-07T10:01:00.711Z,100848.06
2023-08-07T10:03:27.813Z,100873.53
2023-08-07T10:05:55.272Z,100879.88
2023-08-07T10:08:22.459Z,100900.06
2023-08-07T10:10:49.143Z,100925.00
2023-08-07T10:13:18.956Z,100877.56
2023-08-07T10:15:50.583Z,100883.66
2023-08-07T10:18:17.211Z,100908.44
2023-08-07T10:20:45.155Z,100908.44
2023-08-07T10:23:13.927Z,100919.63
2023-08-07T10:25:44.510Z,100940.09
2023-08-07T10:28:14.911Z,100917.34
2023-08-07T10:30:42.949Z,100929.13
2023-08-07T10:33:12.905Z,100926.41
2023-08-07T10:35:46.130Z,100935.53
2023-08-07T10:38:12.926Z,100906.31
2023-08-07T10:41:13.988Z,100944.13
2023-08-07T10:43:42.362Z,100929.53
2023-08-07T10:46:24.851Z,100930.63
2023-08-07T10:48:58.464Z,100934.16
2023-08-07T10:51:34.223Z,100934.16
2023-08-07T10:54:02.753Z,100929.13
2023-08-07T10:56:35.075Z,100920.88
2023-08-07T10:59:11.579Z,100939.44
2023-08-07T11:01:43.530Z,100902.94
2023-08-07T11:04:10.126Z,100944.63
2023-08-07T11:06:38.512Z,100944.63
2023-08-07T11:09:07.491Z,100931.63
2023-08-07T11:11:47.648Z,100924.34
2023-08-07T11:14:18.837Z,100897.81
2023-08-07T11:16:46.945Z,100920.41
2023-08-07T11:19:17.823Z,63019.00
2023-08-07T11:21:44.443Z,100914.84
2023-08-07T11:24:14.858Z,100931.53
2023-08-07T11:26:43.215Z,100914.00
2023-08-07T11:29:10.454Z,100917.31
2023-08-07T11:31:37.122Z,100941.59
2023-08-07T11:34:04.138Z,100933.00
2023-08-07T11:36:30.895Z,100930.84
2023-08-07T11:38:57.673Z,100930.84
2023-08-07T11:41:24.188Z,100941.41
2023-08-07T11:43:50.697Z,100941.41
2023-08-07T11:46:17.523Z,100949.56
2023-08-07T11:48:51.068Z,100962.91
2023-08-07T11:51:17.573Z,100962.09
2023-08-07T11:53:44.226Z,100953.78
2023-08-07T11:56:12.410Z,100974.59
2023-08-07T11:58:40.804Z,100979.41
2023-08-07T12:01:10.990Z,100943.72
2023-08-07T12:03:39.970Z,100951.53
2023-08-07T12:06:15.478Z,100953.31
2023-08-07T12:08:42.881Z,100977.72
2023-08-07T12:11:11.449Z,100945.53
2023-08-07T12:13:39.482Z,100947.78
2023-08-07T12:16:09.605Z,100956.75
2023-08-07T12:18:38.710Z,100968.81
2023-08-07T12:21:08.103Z,100977.13
2023-08-07T12:23:35.906Z,100989.53
2023-08-07T12:26:02.903Z,100970.97
2023-08-07T12:28:29.398Z,100970.97
2023-08-07T12:30:57.773Z,100979.88
2023-08-07T12:33:24.501Z,100990.75
2023-08-07T12:35:51.112Z,101009.06
2023-08-07T12:38:18.570Z,101011.25
2023-08-07T12:40:45.247Z,100992.25
2023-08-07T12:43:12.160Z,100984.13
2023-08-07T12:48:08.900Z,101017.78
2023-08-07T12:50:35.913Z,100972.31
2023-08-07T12:53:02.982Z,100966.91
2023-08-07T12:55:30.505Z,101011.22
2023-08-07T12:57:57.838Z,101007.63
2023-08-07T13:00:24.801Z,100997.88
2023-08-07T13:02:52.315Z,101014.69
2023-08-07T13:05:22.907Z,101016.25
2023-08-07T13:07:49.891Z,101008.97
2023-08-07T13:10:17.886Z,101017.53
2023-08-07T13:12:46.105Z,101025.25
2023-08-07T13:15:14.710Z,101016.25
2023-08-07T13:17:42.238Z,100989.28
2023-08-07T13:20:11.273Z,101016.50
2023-08-07T13:22:45.547Z,100991.97
2023-08-07T13:25:13.832Z,101032.78
2023-08-07T13:27:41.236Z,101016.53
2023-08-07T13:30:09.567Z,101013.06
2023-08-07T13:32:37.194Z,101012.44
2023-08-07T13:35:04.430Z,101011.75
2023-08-07T13:37:31.021Z,101010.34
2023-08-07T13:39:57.683Z,101008.00
2023-08-07T13:42:28.725Z,101006.75
2023-08-07T13:44:57.116Z,101012.97
2023-08-07T13:47:26.734Z,100960.41
2023-08-07T13:49:54.974Z,100992.59
2023-08-07T13:52:21.782Z,101000.78
2023-08-07T13:54:48.591Z,101020.53
2023-08-07T13:57:15.150Z,100996.97
2023-08-07T13:59:41.789Z,100996.97
2023-08-07T14:02:08.497Z,101029.63
2023-08-07T14:04:35.024Z,101026.94
2023-08-07T14:07:01.677Z,101016.06
2023-08-07T14:09:28.201Z,101008.97
2023-08-07T14:11:55.135Z,101001.03
2023-08-07T14:14:21.902Z,101012.13
2023-08-07T14:16:49.498Z,101019.75
2023-08-07T14:19:16.039Z,101019.66
2023-08-07T14:21:42.532Z,100996.22
2023-08-07T14:26:35.598Z,101026.06
2023-08-07T14:29:02.109Z,101010.72
2023-08-07T14:31:28.617Z,101013.56
2023-08-07T14:33:55.450Z,101001.16
2023-08-07T14:36:22.308Z,101002.34
2023-08-07T14:38:49.217Z,101013.78
2023-08-07T14:41:15.756Z,101024.44
2023-08-07T14:43:42.346Z,101032.94
2023-08-07T14:46:08.989Z,101017.81
2023-08-07T14:48:35.544Z,101004.25
2023-08-07T14:51:02.071Z,101032.56
2023-08-07T14:53:28.768Z,101009.72
2023-08-07T14:55:55.881Z,101027.63
2023-08-07T14:58:23.304Z,101052.03
2023-08-07T15:00:51.384Z,101059.09
2023-08-07T15:03:17.944Z,63019.00
2023-08-07T15:05:44.557Z,101059.09
2023-08-07T15:08:11.154Z,101087.50
2023-08-07T15:10:38.089Z,101094.53
2023-08-07T15:13:04.628Z,101090.78
2023-08-07T15:15:31.309Z,101081.88
2023-08-07T15:17:57.924Z,101080.91
2023-08-07T15:20:25.495Z,101117.16
2023-08-07T15:22:52.055Z,101111.25
2023-08-07T15:25:19.012Z,101102.88
2023-08-07T15:27:45.501Z,101105.94
2023-08-07T15:30:12.510Z,101107.72
2023-08-07T15:32:39.606Z,101125.00
2023-08-07T15:35:06.627Z,101121.47
2023-08-07T15:37:33.163Z,101114.31
2023-08-07T15:39:59.824Z,101121.81
2023-08-07T15:42:26.337Z,101107.34
2023-08-07T15:44:53.075Z,101111.75
2023-08-07T15:47:19.628Z,101108.53
2023-08-07T15:49:49.237Z,101106.31
2023-08-07T15:52:16.775Z,101101.19
2023-08-07T15:54:44.374Z,101100.19
2023-08-07T15:57:10.903Z,101092.25
2023-08-07T15:59:37.435Z,101110.06
2023-08-07T16:02:05.456Z,101110.78
2023-08-07T16:04:32.794Z,101057.50
2023-08-07T16:06:59.669Z,101116.16
2023-08-07T16:09:26.524Z,101118.97
2023-08-07T16:11:53.050Z,101125.25
2023-08-07T16:14:19.617Z,101117.28
2023-08-07T16:16:46.209Z,101115.47
2023-08-07T16:19:12.832Z,101111.59
2023-08-07T16:21:39.371Z,101111.22
2023-08-07T16:24:06.239Z,101105.97
2023-08-07T16:26:32.898Z,101116.72
2023-08-07T16:28:59.359Z,101115.25
2023-08-07T16:31:26.188Z,101106.94
2023-08-07T16:37:41.408Z,101107.16
2023-08-07T16:40:08.929Z,101111.56
2023-08-07T16:42:35.446Z,101095.00
2023-08-07T16:45:02.183Z,101096.97
2023-08-07T16:47:28.738Z,101102.47
2023-08-07T22:51:08.878Z,101016.78
2023-08-07T22:53:35.386Z,101014.63
2023-08-07T22:56:01.939Z,101007.72
2023-08-07T22:58:28.475Z,63019.00
2023-08-07T23:00:55.008Z,81394.59
2023-08-07T23:03:21.646Z,100993.69
2023-08-07T23:05:48.342Z,63019.00
2023-08-07T23:08:14.923Z,63019.00
2023-08-07T23:10:41.395Z,63019.00
2023-08-07T23:13:08.187Z,63019.00
2023-08-07T23:15:34.784Z,63019.00
2023-08-07T23:18:01.656Z,63019.00
2023-08-07T23:20:28.372Z,63019.00
2023-08-07T23:22:56.281Z,63019.00
2023-08-07T23:25:22.903Z,63019.00
2023-08-07T23:27:49.446Z,63019.00
2023-08-07T23:30:16.010Z,63019.00
2023-08-07T23:32:42.797Z,63019.00
2023-08-07T23:35:09.427Z,63019.00
2023-08-07T23:37:36.009Z,63019.00
2023-08-07T23:40:02.571Z,63019.00
2023-08-07T23:42:29.903Z,63019.00
2023-08-07T23:44:56.486Z,63019.00
2023-08-07T23:47:23.123Z,63019.00
2023-08-07T23:49:49.640Z,63019.00
2023-08-07T23:52:16.093Z,63019.00
2023-08-07T23:54:42.612Z,63019.00
2023-08-07T23:57:09.421Z,63019.00
2023-08-07T23:59:35.896Z,63019.00
